Time;durP1;ratioP1;P1;durP2;ratioP2;P2;SDS_P1;SDS_P2;PMS_P1;PMS_P2;Temp;Humidity;BMP_temperature;BMP_pressure;BME280_temperature;BME280_humidity;BME280_pressure;Samples;Min_cycle;Max_cycle;Signal;HPM_P1;HPM_P2
2022/12/23 00:00:10;;;;;;;80.18;37.75;;;7.20;99.90;;;;;;5041216;28;20033;-69
2022/12/23 00:02:36;;;;;;;75.03;35.05;;;7.30;99.90;;;;;;5033970;28;20136;-69
2022/12/23 00:05:02;;;;;;;67.60;35.25;;;7.20;99.90;;;;;;5042782;28;20550;-68
2022/12/23 00:07:28;;;;;;;74.57;36.63;;;7.30;99.90;;;;;;5046702;28;20094;-69
2022/12/23 00:09:53;;;;;;;75.15;36.15;;;7.30;99.90;;;;;;5031713;28;20049;-69
2022/12/23 00:15:06;;;;;;;72.38;35.38;;;7.20;99.90;;;;;;5045613;28;20041;-69
2022/12/23 00:17:40;;;;;;;75.32;35.60;;;7.30;99.90;;;;;;5043024;28;20081;-69
2022/12/23 00:20:07;;;;;;;64.68;32.80;;;7.30;99.90;;;;;;5044628;28;20072;-68
2022/12/23 00:25:17;;;;;;;72.40;34.45;;;7.20;99.90;;;;;;5040712;28;20056;-69
2022/12/23 00:28:00;;;;;;;70.80;32.30;;;7.20;99.90;;;;;;5041922;28;20046;-73
2022/12/23 00:30:27;;;;;;;72.38;34.10;;;7.20;99.90;;;;;;5046039;28;20060;-68
2022/12/23 00:32:53;;;;;;;68.82;34.75;;;7.20;99.90;;;;;;5051100;28;20060;-68
2022/12/23 00:35:19;;;;;;;69.93;32.17;;;7.20;99.90;;;;;;5053914;28;20494;-69
2022/12/23 00:37:44;;;;;;;72.45;34.58;;;7.20;99.90;;;;;;5052378;28;20041;-72
2022/12/23 00:42:59;;;;;;;75.85;34.78;;;7.20;99.90;;;;;;5052357;28;20056;-69
2022/12/23 00:45:25;;;;;;;74.03;33.85;;;7.10;99.90;;;;;;5059926;28;20041;-69
2022/12/23 00:50:36;;;;;;;66.45;32.97;;;7.10;99.90;;;;;;5045060;28;20095;-68
2022/12/23 00:53:03;;;;;;;74.13;33.35;;;7.10;99.90;;;;;;5051867;28;20055;-69
2022/12/23 00:55:29;;;;;;;68.93;32.92;;;7.10;99.90;;;;;;5053713;28;20052;-69
2022/12/23 00:57:55;;;;;;;68.55;32.80;;;7.10;99.90;;;;;;5051115;28;20255;-68
2022/12/23 01:05:35;;;;;;;69.40;32.22;;;7.10;99.90;;;;;;5051811;28;20128;-68
2022/12/23 01:06:02;;;;;;;65.38;32.45;;;7.10;99.90;;;;;;5053738;28;20055;-69
2022/12/23 01:08:28;;;;;;;61.80;31.67;;;7.10;99.90;;;;;;5034559;28;20411;-69
2022/12/23 01:10:54;;;;;;;73.90;33.33;;;7.10;99.90;;;;;;5050262;28;20048;-68
2022/12/23 01:13:20;;;;;;;70.10;33.00;;;7.10;99.90;;;;;;5052351;28;20041;-69
2022/12/23 01:15:46;;;;;;;68.70;31.85;;;7.10;99.90;;;;;;5056277;28;20047;-68
2022/12/23 01:18:12;;;;;;;70.50;33.17;;;7.10;99.90;;;;;;5059829;28;20104;-68
2022/12/23 01:20:39;;;;;;;68.07;31.55;;;7.10;99.90;;;;;;5050332;28;20033;-68
2022/12/23 01:23:05;;;;;;;69.50;32.00;;;7.10;99.90;;;;;;5051306;28;20627;-68
2022/12/23 01:25:31;;;;;;;74.85;33.22;;;7.10;99.90;;;;;;5050656;28;20051;-70
2022/12/23 01:27:57;;;;;;;65.70;31.67;;;7.20;99.90;;;;;;5061250;28;20413;-68
2022/12/23 01:30:23;;;;;;;82.75;33.60;;;7.10;99.90;;;;;;5034341;28;20144;-68
2022/12/23 01:32:48;;;;;;;70.03;30.92;;;7.10;99.90;;;;;;5049890;28;20053;-68
2022/12/23 01:35:14;;;;;;;70.90;30.95;;;7.10;99.90;;;;;;5050255;28;20057;-68
2022/12/23 01:37:40;;;;;;;63.42;29.38;;;7.00;99.90;;;;;;5083846;28;20143;-69
2022/12/23 01:40:06;;;;;;;69.78;32.75;;;7.00;99.90;;;;;;5050547;28;20049;-73
2022/12/23 01:42:45;;;;;;;80.47;34.30;;;7.00;99.90;;;;;;5036899;28;20073;-68
2022/12/23 01:45:16;;;;;;;82.10;33.47;;;7.10;99.90;;;;;;5051234;28;20044;-68
2022/12/23 01:48:05;;;;;;;76.72;33.25;;;7.00;99.90;;;;;;5052128;28;20044;-69
2022/12/23 01:50:40;;;;;;;72.38;32.90;;;7.00;99.90;;;;;;5051516;28;20044;-68
2022/12/23 01:53:10;;;;;;;77.22;30.27;;;7.00;99.90;;;;;;5039416;28;20076;-68
2022/12/23 01:55:46;;;;;;;68.95;32.72;;;7.00;99.90;;;;;;5051553;28;20053;-71
2022/12/23 01:58:35;;;;;;;70.28;31.02;;;7.00;99.90;;;;;;5050682;28;20410;-68
2022/12/23 02:03:47;;;;;;;70.88;32.65;;;7.10;99.90;;;;;;5051198;28;20049;-68
2022/12/23 02:09:33;;;;;;;72.32;32.28;;;7.10;99.90;;;;;;5042767;28;20567;-68
2022/12/23 02:12:07;;;;;;;69.80;32.85;;;7.00;99.90;;;;;;5064259;28;20052;-70
2022/12/23 02:17:59;;;;;;;74.75;32.60;;;7.00;99.90;;;;;;5056856;28;20135;-67
2022/12/23 02:20:24;;;;;;;84.35;34.55;;;7.00;99.90;;;;;;5037821;28;20128;-70
2022/12/23 02:23:24;;;;;;;72.82;34.13;;;7.00;99.90;;;;;;5051075;28;20179;-67
2022/12/23 02:26:20;;;;;;;68.25;32.53;;;7.10;99.90;;;;;;5049418;28;20059;-67
2022/12/23 02:29:23;;;;;;;86.43;35.08;;;7.00;99.90;;;;;;5046776;28;20491;-70
2022/12/23 02:31:58;;;;;;;74.35;32.40;;;7.00;99.90;;;;;;5049328;28;20117;-68
2022/12/23 02:34:29;;;;;;;74.57;32.72;;;7.00;99.90;;;;;;5049651;28;20060;-67
2022/12/23 02:37:24;;;;;;;75.78;34.15;;;7.00;99.90;;;;;;5050780;28;20060;-67
2022/12/23 02:40:03;;;;;;;70.80;32.88;;;7.00;99.90;;;;;;5048034;28;20076;-68
2022/12/23 02:42:50;;;;;;;71.63;31.67;;;7.00;99.90;;;;;;5050846;28;20117;-68
2022/12/23 02:45:44;;;;;;;75.38;32.53;;;7.00;99.90;;;;;;5080647;28;20052;-68
2022/12/23 02:48:21;;;;;;;72.72;31.35;;;7.00;99.90;;;;;;5049944;28;20041;-68
2022/12/23 02:50:50;;;;;;;80.95;32.40;;;7.00;99.90;;;;;;5049607;28;20053;-68
2022/12/23 02:53:32;;;;;;;69.85;30.75;;;7.10;99.90;;;;;;5049771;28;20128;-68
2022/12/23 02:56:00;;;;;;;73.53;32.17;;;7.00;99.90;;;;;;5050565;28;20068;-68
2022/12/23 02:58:31;;;;;;;74.72;32.58;;;7.00;99.90;;;;;;5050031;28;20055;-68
2022/12/23 03:00:59;;;;;;;72.65;30.52;;;7.00;99.90;;;;;;5082950;28;20068;-68
2022/12/23 03:03:25;;;;;;;72.47;31.05;;;7.10;99.90;;;;;;5049665;28;20102;-68
2022/12/23 03:05:53;;;;;;;69.07;29.52;;;7.00;99.90;;;;;;5050197;28;20099;-68
2022/12/23 03:08:28;;;;;;;77.97;30.40;;;7.00;99.90;;;;;;5049420;28;20548;-68
2022/12/23 03:10:56;;;;;;;70.43;29.45;;;7.00;99.90;;;;;;5052177;28;20064;-68
2022/12/23 03:13:45;;;;;;;76.20;30.58;;;7.00;99.90;;;;;;5053858;28;20052;-68
2022/12/23 03:16:27;;;;;;;78.93;30.75;;;7.00;99.90;;;;;;5052254;28;20198;-68
2022/12/23 03:19:17;;;;;;;66.47;27.95;;;6.80;99.90;;;;;;5054257;28;20402;-68
2022/12/23 03:21:52;;;;;;;72.82;28.65;;;7.00;99.90;;;;;;5051686;28;20060;-68
2022/12/23 03:24:28;;;;;;;64.20;27.05;;;7.00;99.90;;;;;;5053653;28;20489;-68
2022/12/23 03:27:00;;;;;;;62.75;26.10;;;7.00;99.90;;;;;;5054408;28;20087;-70
2022/12/23 03:29:50;;;;;;;61.65;25.35;;;7.00;99.90;;;;;;5052187;28;20676;-68
2022/12/23 03:32:18;;;;;;;68.85;25.52;;;7.00;99.90;;;;;;5053287;28;20049;-70
2022/12/23 03:34:48;;;;;;;60.28;25.30;;;7.00;99.90;;;;;;5040156;28;20113;-68
2022/12/23 03:37:16;;;;;;;57.58;24.35;;;7.00;99.90;;;;;;5052436;28;20057;-68
2022/12/23 03:39:50;;;;;;;57.00;24.63;;;7.00;99.90;;;;;;5052671;28;20037;-68
2022/12/23 03:42:30;;;;;;;63.22;25.27;;;7.00;99.90;;;;;;5052547;28;20072;-68
2022/12/23 03:45:00;;;;;;;57.45;24.20;;;7.00;99.90;;;;;;5053259;28;20084;-68
2022/12/23 03:47:33;;;;;;;60.38;24.98;;;7.00;99.90;;;;;;5049240;28;20120;-67
2022/12/23 03:50:05;;;;;;;63.42;25.35;;;7.00;99.90;;;;;;5051976;28;20052;-68
2022/12/23 03:52:39;;;;;;;69.82;26.90;;;7.00;99.90;;;;;;5050705;28;20156;-69
2022/12/23 03:55:10;;;;;;;68.30;25.40;;;7.00;99.90;;;;;;5048452;28;20726;-69
2022/12/23 03:57:56;;;;;;;62.47;25.65;;;7.00;99.90;;;;;;5040217;28;20053;-69
2022/12/23 04:00:22;;;;;;;65.22;25.83;;;7.00;99.90;;;;;;5027660;28;20068;-67
2022/12/23 04:03:16;;;;;;;66.47;27.63;;;7.00;99.90;;;;;;5054382;28;20069;-67
2022/12/23 04:05:49;;;;;;;66.50;26.92;;;7.00;99.90;;;;;;5051370;28;20118;-68
2022/12/23 04:08:47;;;;;;;63.58;25.98;;;6.90;99.90;;;;;;5052860;28;20521;-73
2022/12/23 04:11:13;;;;;;;73.97;27.75;;;7.00;99.90;;;;;;5052618;28;20410;-67
2022/12/23 04:13:39;;;;;;;69.65;27.02;;;6.90;99.90;;;;;;5053822;28;20095;-68
2022/12/23 04:16:05;;;;;;;61.83;24.00;;;6.90;99.90;;;;;;5052568;28;20041;-69
2022/12/23 04:18:31;;;;;;;68.88;26.42;;;6.90;99.90;;;;;;5051173;28;20124;-67
2022/12/23 04:20:57;;;;;;;63.70;25.77;;;6.90;99.90;;;;;;5053196;28;20128;-67
2022/12/23 04:23:23;;;;;;;61.72;26.00;;;6.90;99.90;;;;;;5062248;28;20406;-68
2022/12/23 04:25:49;;;;;;;58.47;25.17;;;7.00;99.90;;;;;;5051901;28;20068;-67
2022/12/23 04:28:14;;;;;;;56.92;24.75;;;7.00;99.90;;;;;;5053019;28;20056;-68
2022/12/23 04:30:40;;;;;;;60.60;23.75;;;6.90;99.90;;;;;;5052275;28;20041;-68
2022/12/23 04:33:06;;;;;;;56.67;23.85;;;7.00;99.90;;;;;;5039584;28;20447;-68
2022/12/23 04:35:31;;;;;;;53.53;22.42;;;7.00;99.90;;;;;;5051415;28;20193;-68
2022/12/23 04:37:57;;;;;;;57.08;24.42;;;7.00;99.90;;;;;;5052745;28;20037;-67
2022/12/23 04:40:23;;;;;;;59.45;23.85;;;7.00;99.90;;;;;;5050833;28;20041;-68
2022/12/23 04:42:48;;;;;;;61.67;25.33;;;7.00;99.90;;;;;;5053345;28;20551;-68
2022/12/23 04:45:14;;;;;;;56.80;24.48;;;7.00;99.90;;;;;;5056906;28;20071;-68
2022/12/23 04:47:40;;;;;;;66.47;25.38;;;6.90;99.90;;;;;;5034126;28;20186;-68
2022/12/23 04:50:06;;;;;;;61.63;24.45;;;7.00;99.90;;;;;;5051281;28;20045;-69
2022/12/23 04:52:32;;;;;;;61.00;25.30;;;7.00;99.90;;;;;;5050778;28;20091;-68
2022/12/23 04:54:58;;;;;;;53.80;23.00;;;7.00;99.90;;;;;;5053385;28;20080;-68
2022/12/23 04:57:23;;;;;;;56.55;23.73;;;7.00;99.90;;;;;;5052488;28;20044;-74
2022/12/23 04:59:49;;;;;;;61.83;24.30;;;6.90;99.90;;;;;;5067612;28;20055;-69
2022/12/23 05:02:15;;;;;;;60.13;24.23;;;6.90;99.90;;;;;;5052648;28;20052;-69
2022/12/23 05:04:40;;;;;;;56.45;23.85;;;6.90;99.90;;;;;;5052872;28;20041;-68
2022/12/23 05:07:06;;;;;;;51.67;23.27;;;6.90;99.90;;;;;;5052689;28;20506;-68
2022/12/23 05:09:32;;;;;;;54.47;23.88;;;6.90;99.90;;;;;;5031345;28;20060;-68
2022/12/23 05:11:57;;;;;;;53.35;22.48;;;6.90;99.90;;;;;;5050660;28;20032;-68
2022/12/23 05:14:23;;;;;;;55.47;22.90;;;7.00;99.90;;;;;;5052454;28;20521;-74
2022/12/23 05:16:49;;;;;;;50.35;22.25;;;6.90;99.90;;;;;;5053084;28;20045;-68
2022/12/23 05:19:15;;;;;;;50.78;22.75;;;6.90;99.90;;;;;;5051787;28;20084;-68
2022/12/23 05:21:40;;;;;;;48.40;21.80;;;7.00;99.90;;;;;;5051577;28;20080;-67
2022/12/23 05:24:06;;;;;;;51.70;22.17;;;6.90;99.90;;;;;;5050584;28;20477;-67
2022/12/23 05:26:32;;;;;;;49.78;22.05;;;6.90;99.90;;;;;;5050765;28;20190;-68
2022/12/23 05:28:57;;;;;;;48.75;22.77;;;6.90;99.90;;;;;;5036623;28;20127;-68
2022/12/23 05:31:23;;;;;;;48.83;22.02;;;6.90;99.90;;;;;;5051879;28;20041;-68
2022/12/23 05:33:49;;;;;;;49.25;22.42;;;6.90;99.90;;;;;;5049206;28;20068;-67
2022/12/23 05:36:14;;;;;;;53.58;23.13;;;6.90;99.90;;;;;;5055914;28;20061;-67
2022/12/23 05:38:40;;;;;;;57.60;23.67;;;6.90;99.90;;;;;;5049662;28;20387;-67
2022/12/23 05:41:06;;;;;;;51.38;21.63;;;6.90;99.90;;;;;;5050436;28;20051;-68
2022/12/23 05:43:32;;;;;;;50.10;22.88;;;6.90;99.90;;;;;;5051309;28;20056;-67
2022/12/23 05:45:58;;;;;;;51.22;22.33;;;6.90;99.90;;;;;;5081161;28;20045;-67
2022/12/23 05:48:23;;;;;;;56.75;23.33;;;6.90;99.90;;;;;;5051760;28;20059;-67
2022/12/23 05:50:50;;;;;;;50.28;22.92;;;6.80;99.90;;;;;;5050573;28;20052;-67
2022/12/23 05:53:17;;;;;;;49.88;23.05;;;6.80;99.90;;;;;;5050119;28;20051;-67
2022/12/23 05:55:42;;;;;;;51.88;22.58;;;6.80;99.90;;;;;;5050666;28;20140;-67
2022/12/23 05:58:08;;;;;;;46.22;22.52;;;6.80;99.90;;;;;;5032365;28;20149;-68
2022/12/23 06:00:34;;;;;;;48.95;23.42;;;6.80;99.90;;;;;;5043819;28;20036;-67
2022/12/23 06:03:00;;;;;;;46.17;21.77;;;6.80;99.90;;;;;;5042022;28;20041;-67
2022/12/23 06:05:26;;;;;;;55.53;22.73;;;6.70;99.90;;;;;;5042218;28;20040;-66
2022/12/23 06:07:51;;;;;;;48.58;20.95;;;6.70;99.90;;;;;;5050151;28;20041;-67
2022/12/23 06:10:17;;;;;;;53.40;21.25;;;6.70;99.90;;;;;;5048849;28;20076;-69
2022/12/23 06:12:43;;;;;;;46.80;22.15;;;6.70;99.90;;;;;;5044518;28;20545;-67
2022/12/23 06:15:10;;;;;;;52.70;22.27;;;6.70;99.90;;;;;;5039121;28;20074;-68
2022/12/23 06:17:36;;;;;;;52.53;22.52;;;6.70;99.90;;;;;;5046983;28;20041;-69
2022/12/23 06:20:02;;;;;;;51.38;22.02;;;6.60;99.90;;;;;;5043753;28;20513;-67
2022/12/23 06:22:27;;;;;;;47.42;22.48;;;6.70;99.90;;;;;;5044936;28;20422;-68
2022/12/23 06:24:53;;;;;;;50.08;21.98;;;6.60;99.90;;;;;;5028918;28;20053;-67
2022/12/23 06:27:19;;;;;;;50.55;22.70;;;6.50;99.90;;;;;;5030023;28;20042;-74
2022/12/23 06:29:45;;;;;;;46.95;22.00;;;6.60;99.90;;;;;;5050497;28;20111;-67
2022/12/23 06:32:11;;;;;;;51.35;23.27;;;6.50;99.90;;;;;;5047587;28;20134;-67
2022/12/23 06:34:36;;;;;;;56.58;24.08;;;6.60;99.90;;;;;;5038803;28;20061;-76
2022/12/23 06:37:02;;;;;;;50.83;23.70;;;6.50;99.90;;;;;;5037991;28;21000;-70
2022/12/23 06:39:28;;;;;;;59.72;24.40;;;6.50;99.90;;;;;;5038293;28;20539;-67
2022/12/23 06:41:54;;;;;;;58.28;25.45;;;6.50;99.90;;;;;;5043710;28;20044;-68
2022/12/23 06:44:20;;;;;;;57.85;25.33;;;6.50;99.90;;;;;;5041690;28;20091;-67
2022/12/23 06:46:45;;;;;;;60.15;24.30;;;6.50;99.90;;;;;;5078987;28;20081;-66
2022/12/23 06:49:11;;;;;;;62.13;26.02;;;6.50;99.90;;;;;;5040796;28;20071;-65
2022/12/23 06:51:36;;;;;;;65.55;26.83;;;6.50;99.90;;;;;;5036499;28;20063;-67
2022/12/23 06:54:02;;;;;;;61.17;25.98;;;6.60;99.90;;;;;;5045516;28;20044;-67
2022/12/23 06:56:28;;;;;;;64.00;28.10;;;6.60;99.90;;;;;;5014239;28;20079;-69
2022/12/23 06:58:54;;;;;;;67.65;27.42;;;6.60;99.90;;;;;;5044965;28;20123;-68
2022/12/23 07:01:20;;;;;;;68.03;27.58;;;6.60;99.90;;;;;;5042658;28;20053;-69
2022/12/23 07:03:45;;;;;;;68.53;27.60;;;6.60;99.90;;;;;;5060892;28;20582;-70
2022/12/23 07:06:11;;;;;;;58.45;26.70;;;6.60;99.90;;;;;;5045256;28;20044;-69
2022/12/23 07:08:37;;;;;;;61.45;26.30;;;6.60;99.90;;;;;;5046201;28;20469;-70
2022/12/23 07:11:03;;;;;;;60.75;26.20;;;6.60;99.90;;;;;;5049809;28;20114;-67
2022/12/23 07:13:31;;;;;;;63.40;27.13;;;6.60;99.90;;;;;;5046989;28;20101;-69
2022/12/23 07:15:57;;;;;;;63.67;26.92;;;6.70;99.90;;;;;;5048374;28;20064;-68
2022/12/23 07:18:24;;;;;;;56.17;25.48;;;6.60;99.90;;;;;;5045538;28;20038;-69
2022/12/23 07:20:50;;;;;;;64.85;27.08;;;6.60;99.90;;;;;;5037942;28;20049;-69
2022/12/23 07:23:16;;;;;;;59.97;26.17;;;6.70;99.90;;;;;;5051590;28;20048;-69
2022/12/23 07:25:42;;;;;;;53.83;24.15;;;6.70;99.90;;;;;;5032061;28;20049;-69
2022/12/23 07:28:07;;;;;;;57.58;24.30;;;6.70;99.90;;;;;;5031644;28;20064;-68
2022/12/23 07:30:33;;;;;;;53.65;24.20;;;6.70;99.90;;;;;;5051761;28;20520;-68
2022/12/23 07:32:58;;;;;;;57.22;25.85;;;6.70;99.90;;;;;;5046991;28;20134;-68
2022/12/23 07:35:25;;;;;;;52.92;24.55;;;6.60;99.90;;;;;;5046677;28;20052;-69
2022/12/23 07:37:52;;;;;;;56.75;24.15;;;6.70;99.90;;;;;;5025552;28;20080;-68
2022/12/23 07:40:18;;;;;;;55.60;23.80;;;6.70;99.90;;;;;;5044927;28;20150;-68
2022/12/23 07:42:46;;;;;;;53.78;22.45;;;6.70;99.90;;;;;;5034438;28;20069;-68
2022/12/23 07:45:12;;;;;;;53.22;22.02;;;6.70;99.90;;;;;;5043291;28;20045;-68
2022/12/23 07:47:38;;;;;;;52.05;21.95;;;6.70;99.90;;;;;;5043371;28;20052;-68
2022/12/23 07:50:04;;;;;;;46.20;20.67;;;6.70;99.90;;;;;;5043682;28;20075;-68
2022/12/23 07:52:30;;;;;;;52.20;21.15;;;6.70;99.90;;;;;;5048402;28;20451;-69
2022/12/23 07:54:55;;;;;;;48.17;20.92;;;6.80;99.90;;;;;;5039416;28;20124;-69
2022/12/23 07:57:23;;;;;;;47.55;20.40;;;6.70;99.90;;;;;;5047846;28;20045;-69
2022/12/23 07:59:48;;;;;;;48.05;19.95;;;6.70;99.90;;;;;;5045253;28;20097;-73
2022/12/23 08:02:14;;;;;;;51.00;21.33;;;6.70;99.90;;;;;;5060377;28;20418;-68
2022/12/23 08:04:40;;;;;;;45.75;20.38;;;6.70;99.90;;;;;;5044385;28;20545;-73
2022/12/23 08:07:05;;;;;;;41.88;19.08;;;6.70;99.90;;;;;;5070369;28;20398;-70
2022/12/23 08:09:31;;;;;;;41.00;18.13;;;6.80;99.90;;;;;;5031230;28;20045;-68
2022/12/23 08:11:57;;;;;;;38.53;17.77;;;6.70;99.90;;;;;;5041892;28;20037;-70
2022/12/23 08:14:22;;;;;;;37.33;17.75;;;6.80;99.90;;;;;;5043722;28;20107;-68
2022/12/23 08:16:48;;;;;;;35.88;16.65;;;6.80;99.90;;;;;;5046211;28;20460;-68
2022/12/23 08:19:14;;;;;;;35.60;17.45;;;6.80;99.90;;;;;;5051151;28;20080;-68
2022/12/23 08:21:40;;;;;;;38.40;16.88;;;6.80;99.90;;;;;;5047579;28;20037;-68
2022/12/23 08:24:05;;;;;;;33.70;16.85;;;6.80;99.90;;;;;;5040334;28;20041;-68
2022/12/23 08:26:32;;;;;;;38.20;17.65;;;6.80;99.90;;;;;;5048515;28;20475;-68
2022/12/23 08:28:59;;;;;;;41.65;17.65;;;6.90;99.90;;;;;;5079802;28;20045;-67
2022/12/23 08:31:27;;;;;;;39.47;16.40;;;6.90;99.90;;;;;;5050772;28;20033;-71
2022/12/23 08:33:55;;;;;;;38.13;16.08;;;6.90;99.90;;;;;;5048763;28;20053;-73
2022/12/23 08:36:26;;;;;;;35.22;15.70;;;6.90;99.90;;;;;;5031997;28;20156;-69
2022/12/23 08:38:53;;;;;;;34.35;16.75;;;6.90;99.90;;;;;;5045498;28;20048;-69
2022/12/23 08:41:23;;;;;;;38.00;16.92;;;6.90;99.90;;;;;;5038935;28;20056;-69
2022/12/23 08:43:49;;;;;;;32.40;14.90;;;6.90;99.90;;;;;;5042683;28;20041;-69
2022/12/23 08:46:15;;;;;;;31.23;14.70;;;6.90;99.90;;;;;;5037869;28;20086;-68
2022/12/23 08:48:40;;;;;;;32.33;15.07;;;6.90;99.90;;;;;;5043447;28;20494;-68
2022/12/23 08:51:08;;;;;;;36.17;16.45;;;6.80;99.90;;;;;;5019850;28;20042;-68
2022/12/23 08:53:36;;;;;;;33.95;16.52;;;6.80;99.90;;;;;;5047219;28;20487;-68
2022/12/23 08:56:04;;;;;;;35.88;17.58;;;6.80;99.90;;;;;;5039487;28;20452;-69
2022/12/23 08:58:34;;;;;;;34.50;16.67;;;6.80;99.90;;;;;;5040852;28;20521;-69
2022/12/23 09:01:03;;;;;;;36.13;16.60;;;6.70;99.90;;;;;;5040730;28;20448;-69
2022/12/23 09:03:28;;;;;;;34.13;16.48;;;6.80;99.90;;;;;;5044921;28;20464;-69
2022/12/23 09:05:54;;;;;;;35.58;17.17;;;6.80;99.90;;;;;;5036150;28;20045;-69
2022/12/23 09:08:20;;;;;;;39.72;18.27;;;6.80;99.90;;;;;;5041280;28;20140;-69
2022/12/23 09:10:45;;;;;;;35.67;17.08;;;6.80;99.90;;;;;;5035953;28;20453;-69
2022/12/23 09:13:12;;;;;;;38.08;17.85;;;6.80;99.90;;;;;;5050548;28;20041;-69
2022/12/23 09:15:41;;;;;;;38.33;17.98;;;6.80;99.90;;;;;;5047121;28;20117;-69
2022/12/23 09:18:08;;;;;;;42.67;19.15;;;6.90;99.90;;;;;;5063067;28;20154;-69
2022/12/23 09:20:34;;;;;;;42.55;18.08;;;6.90;99.90;;;;;;5042537;28;20055;-70
2022/12/23 09:23:00;;;;;;;39.00;18.58;;;6.90;99.90;;;;;;5016702;28;20049;-72
2022/12/23 09:25:26;;;;;;;39.10;18.50;;;7.00;99.90;;;;;;5046978;28;20041;-69
2022/12/23 09:27:52;;;;;;;41.45;19.58;;;7.00;99.90;;;;;;5049533;28;20060;-67
2022/12/23 09:30:17;;;;;;;41.15;18.52;;;7.00;99.90;;;;;;5046896;28;20076;-69
2022/12/23 09:32:43;;;;;;;39.67;18.63;;;7.00;99.90;;;;;;5045038;28;20192;-69
2022/12/23 09:35:09;;;;;;;39.63;18.17;;;7.10;99.90;;;;;;5044689;28;20076;-68
2022/12/23 09:37:35;;;;;;;41.78;18.52;;;7.00;99.90;;;;;;5047403;28;20048;-69
2022/12/23 09:40:02;;;;;;;36.05;17.65;;;7.00;99.90;;;;;;5072582;28;20461;-73
2022/12/23 09:42:49;;;;;;;39.70;18.33;;;7.00;99.90;;;;;;5047786;28;20195;-70
2022/12/23 09:45:40;;;;;;;36.63;18.48;;;7.00;99.90;;;;;;5050970;28;20041;-70
2022/12/23 09:48:13;;;;;;;37.83;18.25;;;7.10;99.90;;;;;;5050674;28;20044;-73
2022/12/23 09:50:40;;;;;;;34.33;18.17;;;7.10;99.90;;;;;;5050638;28;20060;-69
2022/12/23 09:53:15;;;;;;;38.40;17.27;;;7.10;99.90;;;;;;5044393;28;20050;-70
2022/12/23 09:55:51;;;;;;;35.50;17.15;;;7.10;99.90;;;;;;5050558;28;20049;-70
2022/12/23 09:58:26;;;;;;;34.78;16.58;;;7.20;99.90;;;;;;5043875;28;20081;-70
2022/12/23 10:01:15;;;;;;;35.10;17.75;;;7.30;99.90;;;;;;5039605;28;20049;-70
2022/12/23 10:04:04;;;;;;;32.80;15.90;;;7.30;99.90;;;;;;5042367;28;20098;-70
2022/12/23 10:06:32;;;;;;;31.67;16.13;;;7.30;99.90;;;;;;5020346;28;20534;-70
2022/12/23 10:09:01;;;;;;;35.97;16.38;;;7.30;99.90;;;;;;5043607;28;20075;-70
2022/12/23 10:11:31;;;;;;;32.75;15.30;;;7.50;99.90;;;;;;5043862;28;20045;-69
2022/12/23 10:14:08;;;;;;;30.50;14.77;;;7.50;99.90;;;;;;5049708;28;20075;-69
2022/12/23 10:16:40;;;;;;;35.17;15.30;;;7.60;99.90;;;;;;5048680;28;20040;-70
2022/12/23 10:19:07;;;;;;;32.75;15.27;;;7.70;99.90;;;;;;5042816;28;20113;-70
2022/12/23 10:21:43;;;;;;;32.40;14.60;;;7.70;99.90;;;;;;5044873;28;20149;-70
2022/12/23 10:24:24;;;;;;;30.67;15.32;;;7.70;99.90;;;;;;5046893;28;20393;-74
2022/12/23 10:26:58;;;;;;;30.23;15.70;;;7.80;99.90;;;;;;5053220;28;20067;-69
2022/12/23 10:29:30;;;;;;;32.13;15.20;;;7.80;99.90;;;;;;5069068;28;20498;-69
2022/12/23 10:32:27;;;;;;;29.75;16.10;;;7.80;99.90;;;;;;5049655;28;20056;-69
2022/12/23 10:35:11;;;;;;;31.73;14.55;;;7.90;99.90;;;;;;5050169;28;20052;-69
2022/12/23 10:37:40;;;;;;;31.37;14.67;;;7.80;99.90;;;;;;5050708;28;20068;-69
2022/12/23 10:40:28;;;;;;;27.65;15.13;;;7.90;99.90;;;;;;5039456;28;20144;-69
2022/12/23 10:43:08;;;;;;;29.83;14.65;;;7.90;99.90;;;;;;5049689;28;20446;-69
2022/12/23 10:46:07;;;;;;;27.95;15.05;;;7.90;99.90;;;;;;5080775;28;20072;-69
2022/12/23 10:48:57;;;;;;;30.85;15.20;;;7.80;99.90;;;;;;5049128;28;20053;-69
2022/12/23 10:51:45;;;;;;;28.67;15.57;;;7.80;99.90;;;;;;5049841;28;20077;-70
2022/12/23 10:54:16;;;;;;;27.70;14.77;;;7.80;99.90;;;;;;5050525;28;20053;-69
2022/12/23 10:56:43;;;;;;;31.55;15.88;;;7.80;99.90;;;;;;5032606;28;20064;-69
2022/12/23 10:59:14;;;;;;;28.42;14.63;;;7.80;99.90;;;;;;5050452;28;20375;-67
2022/12/23 11:01:42;;;;;;;27.55;15.10;;;7.80;99.90;;;;;;5050145;28;20136;-67
2022/12/23 11:04:15;;;;;;;28.15;14.38;;;7.70;99.90;;;;;;5063206;28;20048;-66
2022/12/23 11:06:45;;;;;;;28.67;14.77;;;7.80;99.90;;;;;;5050254;28;20475;-67
2022/12/23 11:09:19;;;;;;;25.00;14.07;;;7.80;99.90;;;;;;5046659;28;20406;-67
2022/12/23 11:12:05;;;;;;;25.90;13.63;;;7.80;99.90;;;;;;5047017;28;20041;-67
2022/12/23 11:14:40;;;;;;;26.58;13.55;;;7.70;99.90;;;;;;5049856;28;20120;-65
2022/12/23 11:17:28;;;;;;;24.63;12.85;;;7.70;99.90;;;;;;5044733;28;20041;-66
2022/12/23 11:20:09;;;;;;;29.73;14.65;;;7.70;99.90;;;;;;5039698;28;20059;-66
2022/12/23 11:22:45;;;;;;;27.88;14.82;;;7.60;99.90;;;;;;5035079;28;20111;-66
2022/12/23 11:25:32;;;;;;;29.35;15.90;;;7.60;99.90;;;;;;5044718;28;20053;-69
2022/12/23 11:28:11;;;;;;;27.13;13.73;;;7.60;99.90;;;;;;5053947;28;20401;-67
2022/12/23 11:31:06;;;;;;;31.10;17.05;;;7.60;99.90;;;;;;5049798;28;20048;-65
2022/12/23 11:33:39;;;;;;;28.83;16.25;;;7.60;99.90;;;;;;5053405;28;20065;-66
2022/12/23 11:36:12;;;;;;;30.17;16.15;;;7.50;99.90;;;;;;5052511;28;20071;-67
2022/12/23 11:38:49;;;;;;;36.60;17.58;;;7.50;99.90;;;;;;5052822;28;20099;-66
2022/12/23 11:41:27;;;;;;;39.60;17.67;;;7.50;99.90;;;;;;5057219;28;20051;-68
2022/12/23 11:44:03;;;;;;;41.13;17.90;;;7.40;99.90;;;;;;5054099;28;20080;-66
2022/12/23 11:46:31;;;;;;;36.55;16.83;;;7.40;99.90;;;;;;5053426;28;20056;-66
2022/12/23 11:49:19;;;;;;;35.80;15.93;;;7.40;99.90;;;;;;5053224;28;20045;-66
2022/12/23 11:51:57;;;;;;;32.78;16.20;;;7.40;99.90;;;;;;5042027;28;20047;-66
2022/12/23 11:54:23;;;;;;;29.38;14.93;;;7.40;99.90;;;;;;5071163;28;20068;-70
2022/12/23 11:56:50;;;;;;;26.60;13.48;;;7.40;99.90;;;;;;5052478;28;20052;-66
2022/12/23 11:59:33;;;;;;;24.45;11.90;;;6.90;99.90;;;;;;5056758;28;20128;-66
2022/12/23 12:02:02;;;;;;;21.75;12.63;;;7.40;99.90;;;;;;5053811;28;20116;-65
2022/12/23 12:04:33;;;;;;;20.42;11.57;;;7.40;99.90;;;;;;5052596;28;20107;-65
2022/12/23 12:07:01;;;;;;;19.50;10.55;;;7.30;99.90;;;;;;5040478;28;20041;-65
2022/12/23 12:09:29;;;;;;;15.63;10.23;;;7.30;99.90;;;;;;5051199;28;20491;-65
2022/12/23 12:12:21;;;;;;;16.25;10.45;;;7.30;99.90;;;;;;5055511;28;20036;-66
2022/12/23 12:14:50;;;;;;;20.25;10.77;;;7.20;99.90;;;;;;5034981;28;20399;-67
2022/12/23 12:17:31;;;;;;;20.50;12.68;;;7.20;99.90;;;;;;5033449;28;20047;-68
2022/12/23 12:20:10;;;;;;;17.50;11.25;;;7.10;99.90;;;;;;5040898;28;20619;-68
2022/12/23 12:22:51;;;;;;;20.95;11.70;;;7.10;99.90;;;;;;5033878;28;20129;-67
2022/12/23 12:25:24;;;;;;;20.70;11.98;;;7.10;99.90;;;;;;5048610;28;20068;-68
2022/12/23 12:27:59;;;;;;;25.20;14.15;;;7.10;99.90;;;;;;5051688;28;20104;-68
2022/12/23 12:30:29;;;;;;;;;;;7.10;99.90;;;;;;5051651;28;20056;-68
2022/12/23 12:33:28;;;;;;;23.05;13.32;;;7.20;99.90;;;;;;5052800;28;19930;-68
2022/12/23 12:36:05;;;;;;;23.73;14.00;;;7.10;99.90;;;;;;5052630;28;20052;-68
2022/12/23 12:38:34;;;;;;;35.80;18.42;;;7.10;99.90;;;;;;5052603;28;20423;-68
2022/12/23 12:41:07;;;;;;;37.50;16.52;;;7.10;99.90;;;;;;5052421;28;20091;-68
2022/12/23 12:43:39;;;;;;;26.50;16.23;;;7.10;99.90;;;;;;5051126;28;20371;-68
2022/12/23 12:46:10;;;;;;;27.38;15.88;;;7.10;99.90;;;;;;5051719;28;20335;-68
2022/12/23 12:48:48;;;;;;;28.17;15.63;;;7.10;99.90;;;;;;5084985;28;20045;-67
2022/12/23 12:51:41;;;;;;;34.08;19.35;;;7.10;99.90;;;;;;5052057;28;20713;-68
2022/12/23 12:54:28;;;;;;;30.48;15.40;;;7.10;99.90;;;;;;5052014;28;20126;-68
2022/12/23 12:56:55;;;;;;;28.42;15.02;;;7.10;99.90;;;;;;5052290;28;20051;-67
2022/12/23 12:59:36;;;;;;;30.88;15.95;;;7.10;99.90;;;;;;5051343;28;20057;-68
2022/12/23 13:02:27;;;;;;;30.00;15.07;;;7.10;99.90;;;;;;5052013;28;20144;-67
2022/12/23 13:05:17;;;;;;;26.83;15.30;;;7.20;99.90;;;;;;5053219;28;20041;-69
2022/12/23 13:08:21;;;;;;;27.98;15.68;;;7.20;99.90;;;;;;5084287;28;20135;-67
2022/12/23 13:11:25;;;;;;;29.98;17.10;;;7.20;99.90;;;;;;5050397;28;20053;-68
2022/12/23 13:13:54;;;;;;;29.95;16.15;;;7.20;99.90;;;;;;5057947;28;20155;-69
2022/12/23 13:16:46;;;;;;;29.42;15.98;;;7.20;99.90;;;;;;5052231;28;20041;-69
2022/12/23 13:19:35;;;;;;;30.92;16.17;;;7.20;99.90;;;;;;5052348;28;20162;-68
2022/12/23 13:22:14;;;;;;;29.65;16.20;;;7.20;99.90;;;;;;5051370;28;20060;-68